sensor_id;sensor_type;location;lat;lon;timestamp;P1;durP1;ratioP1;P2;durP2;ratioP2
25509;SDS011;13413;52.336;21.200;2023-06-10T00:02:47;8.00;;;6.10;;
25509;SDS011;13413;52.336;21.200;2023-06-10T00:05:40;9.70;;;7.40;;
25509;SDS011;13413;52.336;21.200;2023-06-10T00:08:35;8.30;;;6.10;;
25509;SDS011;13413;52.336;21.200;2023-06-10T00:11:29;11.50;;;6.50;;
25509;SDS011;13413;52.336;21.200;2023-06-10T00:14:23;13.40;;;7.10;;
25509;SDS011;13413;52.336;21.200;2023-06-10T00:17:17;9.40;;;6.60;;
25509;SDS011;13413;52.336;21.200;2023-06-10T00:20:11;11.10;;;6.40;;
25509;SDS011;13413;52.336;21.200;2023-06-10T00:23:05;7.80;;;6.10;;
25509;SDS011;13413;52.336;21.200;2023-06-10T00:26:00;8.50;;;6.30;;
25509;SDS011;13413;52.336;21.200;2023-06-10T00:28:53;7.00;;;5.30;;
25509;SDS011;13413;52.336;21.200;2023-06-10T00:31:48;7.20;;;6.30;;
25509;SDS011;13413;52.336;21.200;2023-06-10T00:40:15;6.50;;;5.60;;
25509;SDS011;13413;52.336;21.200;2023-06-10T00:43:09;8.70;;;6.10;;
25509;SDS011;13413;52.336;21.200;2023-06-10T00:46:03;9.60;;;6.50;;
25509;SDS011;13413;52.336;21.200;2023-06-10T00:48:57;15.90;;;6.60;;
25509;SDS011;13413;52.336;21.200;2023-06-10T00:51:51;8.90;;;5.80;;
25509;SDS011;13413;52.336;21.200;2023-06-10T00:54:46;8.90;;;5.90;;
25509;SDS011;13413;52.336;21.200;2023-06-10T00:57:42;8.00;;;6.00;;
25509;SDS011;13413;52.336;21.200;2023-06-10T01:00:36;7.50;;;5.60;;
25509;SDS011;13413;52.336;21.200;2023-06-10T01:03:30;10.70;;;6.00;;
25509;SDS011;13413;52.336;21.200;2023-06-10T01:06:26;8.50;;;5.60;;
25509;SDS011;13413;52.336;21.200;2023-06-10T01:09:31;14.00;;;6.40;;
25509;SDS011;13413;52.336;21.200;2023-06-10T01:12:39;13.80;;;6.70;;
25509;SDS011;13413;52.336;21.200;2023-06-10T01:15:37;11.70;;;6.70;;
25509;SDS011;13413;52.336;21.200;2023-06-10T01:18:31;8.80;;;6.30;;
25509;SDS011;13413;52.336;21.200;2023-06-10T01:21:25;10.50;;;6.00;;
25509;SDS011;13413;52.336;21.200;2023-06-10T01:24:19;9.10;;;5.80;;
25509;SDS011;13413;52.336;21.200;2023-06-10T01:27:13;9.00;;;5.80;;
25509;SDS011;13413;52.336;21.200;2023-06-10T01:30:14;8.80;;;6.20;;
25509;SDS011;13413;52.336;21.200;2023-06-10T01:33:11;11.70;;;5.80;;
25509;SDS011;13413;52.336;21.200;2023-06-10T01:36:09;11.70;;;6.20;;
25509;SDS011;13413;52.336;21.200;2023-06-10T01:39:04;14.60;;;6.50;;
25509;SDS011;13413;52.336;21.200;2023-06-10T01:41:59;11.50;;;5.70;;
25509;SDS011;13413;52.336;21.200;2023-06-10T01:44:54;10.80;;;5.90;;
25509;SDS011;13413;52.336;21.200;2023-06-10T01:47:48;7.90;;;5.60;;
25509;SDS011;13413;52.336;21.200;2023-06-10T01:50:42;6.80;;;5.30;;
25509;SDS011;13413;52.336;21.200;2023-06-10T01:53:36;8.10;;;5.70;;
25509;SDS011;13413;52.336;21.200;2023-06-10T01:56:30;7.60;;;5.60;;
25509;SDS011;13413;52.336;21.200;2023-06-10T01:59:25;9.90;;;5.90;;
25509;SDS011;13413;52.336;21.200;2023-06-10T02:02:18;8.20;;;5.60;;
25509;SDS011;13413;52.336;21.200;2023-06-10T02:05:12;6.60;;;5.60;;
25509;SDS011;13413;52.336;21.200;2023-06-10T02:08:06;9.10;;;5.80;;
25509;SDS011;13413;52.336;21.200;2023-06-10T02:11:00;7.50;;;5.40;;
25509;SDS011;13413;52.336;21.200;2023-06-10T02:13:54;8.50;;;6.30;;
25509;SDS011;13413;52.336;21.200;2023-06-10T02:16:48;8.30;;;6.10;;
25509;SDS011;13413;52.336;21.200;2023-06-10T02:19:42;16.40;;;6.40;;
25509;SDS011;13413;52.336;21.200;2023-06-10T02:22:36;10.30;;;5.90;;
25509;SDS011;13413;52.336;21.200;2023-06-10T02:25:30;11.80;;;5.60;;
25509;SDS011;13413;52.336;21.200;2023-06-10T02:28:24;11.80;;;7.10;;
25509;SDS011;13413;52.336;21.200;2023-06-10T02:31:18;11.40;;;5.80;;
25509;SDS011;13413;52.336;21.200;2023-06-10T02:34:12;8.20;;;5.80;;
25509;SDS011;13413;52.336;21.200;2023-06-10T02:40:00;10.90;;;6.00;;
25509;SDS011;13413;52.336;21.200;2023-06-10T02:42:54;10.90;;;6.00;;
25509;SDS011;13413;52.336;21.200;2023-06-10T02:45:48;11.20;;;6.20;;
25509;SDS011;13413;52.336;21.200;2023-06-10T02:48:42;10.10;;;5.80;;
25509;SDS011;13413;52.336;21.200;2023-06-10T03:00:03;7.70;;;6.00;;
25509;SDS011;13413;52.336;21.200;2023-06-10T03:02:59;13.40;;;5.50;;
25509;SDS011;13413;52.336;21.200;2023-06-10T03:05:52;12.60;;;5.60;;
25509;SDS011;13413;52.336;21.200;2023-06-10T03:08:47;8.80;;;5.80;;
25509;SDS011;13413;52.336;21.200;2023-06-10T03:11:40;7.40;;;5.30;;
25509;SDS011;13413;52.336;21.200;2023-06-10T03:14:34;9.20;;;5.60;;
25509;SDS011;13413;52.336;21.200;2023-06-10T03:17:29;9.00;;;5.50;;
25509;SDS011;13413;52.336;21.200;2023-06-10T03:20:23;10.60;;;5.20;;
25509;SDS011;13413;52.336;21.200;2023-06-10T03:23:17;11.80;;;6.20;;
25509;SDS011;13413;52.336;21.200;2023-06-10T03:26:11;9.50;;;5.70;;
25509;SDS011;13413;52.336;21.200;2023-06-10T03:29:05;8.20;;;6.30;;
25509;SDS011;13413;52.336;21.200;2023-06-10T03:32:00;10.00;;;5.30;;
25509;SDS011;13413;52.336;21.200;2023-06-10T03:34:54;6.60;;;5.00;;
25509;SDS011;13413;52.336;21.200;2023-06-10T03:37:48;12.30;;;5.50;;
25509;SDS011;13413;52.336;21.200;2023-06-10T03:40:42;7.70;;;5.40;;
25509;SDS011;13413;52.336;21.200;2023-06-10T03:43:36;14.90;;;6.10;;
25509;SDS011;13413;52.336;21.200;2023-06-10T03:49:23;10.80;;;6.30;;
25509;SDS011;13413;52.336;21.200;2023-06-10T03:52:17;11.00;;;5.80;;
25509;SDS011;13413;52.336;21.200;2023-06-10T03:55:10;15.00;;;5.50;;
25509;SDS011;13413;52.336;21.200;2023-06-10T03:58:05;7.10;;;5.50;;
25509;SDS011;13413;52.336;21.200;2023-06-10T04:00:58;10.50;;;5.80;;
25509;SDS011;13413;52.336;21.200;2023-06-10T04:03:52;10.10;;;5.70;;
25509;SDS011;13413;52.336;21.200;2023-06-10T04:06:47;12.10;;;6.00;;
25509;SDS011;13413;52.336;21.200;2023-06-10T04:09:41;17.20;;;6.30;;
25509;SDS011;13413;52.336;21.200;2023-06-10T04:12:35;10.10;;;5.60;;
25509;SDS011;13413;52.336;21.200;2023-06-10T04:15:29;11.00;;;5.20;;
25509;SDS011;13413;52.336;21.200;2023-06-10T04:18:22;8.90;;;5.40;;
25509;SDS011;13413;52.336;21.200;2023-06-10T04:21:15;9.60;;;5.40;;
25509;SDS011;13413;52.336;21.200;2023-06-10T04:24:09;9.30;;;5.00;;
25509;SDS011;13413;52.336;21.200;2023-06-10T04:27:04;8.40;;;5.90;;
25509;SDS011;13413;52.336;21.200;2023-06-10T04:29:59;9.60;;;5.60;;
25509;SDS011;13413;52.336;21.200;2023-06-10T04:32:53;9.30;;;5.90;;
25509;SDS011;13413;52.336;21.200;2023-06-10T04:35:47;10.70;;;5.50;;
25509;SDS011;13413;52.336;21.200;2023-06-10T04:38:41;9.80;;;5.50;;
25509;SDS011;13413;52.336;21.200;2023-06-10T04:41:36;9.90;;;5.70;;
25509;SDS011;13413;52.336;21.200;2023-06-10T04:44:30;8.60;;;5.30;;
25509;SDS011;13413;52.336;21.200;2023-06-10T04:47:24;5.50;;;4.70;;
25509;SDS011;13413;52.336;21.200;2023-06-10T04:50:18;15.30;;;6.10;;
25509;SDS011;13413;52.336;21.200;2023-06-10T04:53:12;18.00;;;6.30;;
25509;SDS011;13413;52.336;21.200;2023-06-10T04:56:06;8.00;;;5.50;;
25509;SDS011;13413;52.336;21.200;2023-06-10T04:59:01;10.10;;;5.60;;
25509;SDS011;13413;52.336;21.200;2023-06-10T05:01:55;9.40;;;5.20;;
25509;SDS011;13413;52.336;21.200;2023-06-10T05:04:49;14.10;;;6.30;;
25509;SDS011;13413;52.336;21.200;2023-06-10T05:07:43;11.00;;;5.20;;
25509;SDS011;13413;52.336;21.200;2023-06-10T05:19:10;9.70;;;5.70;;
25509;SDS011;13413;52.336;21.200;2023-06-10T05:22:04;15.30;;;6.00;;
25509;SDS011;13413;52.336;21.200;2023-06-10T05:24:58;9.80;;;4.70;;
25509;SDS011;13413;52.336;21.200;2023-06-10T05:27:52;10.70;;;4.90;;
25509;SDS011;13413;52.336;21.200;2023-06-10T05:30:45;9.40;;;5.30;;
25509;SDS011;13413;52.336;21.200;2023-06-10T05:33:39;6.70;;;4.80;;
25509;SDS011;13413;52.336;21.200;2023-06-10T05:36:33;9.40;;;5.60;;
25509;SDS011;13413;52.336;21.200;2023-06-10T05:39:27;8.20;;;5.60;;
25509;SDS011;13413;52.336;21.200;2023-06-10T05:42:21;13.00;;;5.70;;
25509;SDS011;13413;52.336;21.200;2023-06-10T05:45:15;8.40;;;5.50;;
25509;SDS011;13413;52.336;21.200;2023-06-10T05:48:09;5.50;;;4.90;;
25509;SDS011;13413;52.336;21.200;2023-06-10T05:51:03;8.80;;;5.60;;
25509;SDS011;13413;52.336;21.200;2023-06-10T05:53:57;10.80;;;5.30;;
25509;SDS011;13413;52.336;21.200;2023-06-10T05:56:51;8.90;;;5.40;;
25509;SDS011;13413;52.336;21.200;2023-06-10T05:59:45;10.10;;;5.30;;
25509;SDS011;13413;52.336;21.200;2023-06-10T06:02:39;10.50;;;6.00;;
25509;SDS011;13413;52.336;21.200;2023-06-10T06:05:33;12.20;;;5.60;;
25509;SDS011;13413;52.336;21.200;2023-06-10T06:08:27;8.70;;;5.00;;
25509;SDS011;13413;52.336;21.200;2023-06-10T06:11:22;8.80;;;5.30;;
25509;SDS011;13413;52.336;21.200;2023-06-10T06:14:15;12.70;;;5.10;;
25509;SDS011;13413;52.336;21.200;2023-06-10T06:17:09;12.70;;;5.40;;
25509;SDS011;13413;52.336;21.200;2023-06-10T06:20:04;10.00;;;5.30;;
25509;SDS011;13413;52.336;21.200;2023-06-10T06:22:59;9.00;;;5.50;;
25509;SDS011;13413;52.336;21.200;2023-06-10T06:25:53;14.80;;;5.80;;
25509;SDS011;13413;52.336;21.200;2023-06-10T06:28:50;7.80;;;5.10;;
25509;SDS011;13413;52.336;21.200;2023-06-10T06:31:44;9.90;;;5.20;;
25509;SDS011;13413;52.336;21.200;2023-06-10T06:34:38;12.80;;;5.40;;
25509;SDS011;13413;52.336;21.200;2023-06-10T06:37:32;12.10;;;5.80;;
25509;SDS011;13413;52.336;21.200;2023-06-10T06:40:27;12.40;;;5.20;;
25509;SDS011;13413;52.336;21.200;2023-06-10T06:43:21;7.50;;;6.20;;
25509;SDS011;13413;52.336;21.200;2023-06-10T06:46:15;8.30;;;5.60;;
25509;SDS011;13413;52.336;21.200;2023-06-10T06:49:09;8.00;;;5.80;;
25509;SDS011;13413;52.336;21.200;2023-06-10T06:52:04;14.30;;;6.20;;
25509;SDS011;13413;52.336;21.200;2023-06-10T06:54:58;8.00;;;5.90;;
25509;SDS011;13413;52.336;21.200;2023-06-10T06:57:52;12.00;;;6.30;;
25509;SDS011;13413;52.336;21.200;2023-06-10T07:00:46;14.10;;;5.10;;
25509;SDS011;13413;52.336;21.200;2023-06-10T07:03:40;14.60;;;6.20;;
25509;SDS011;13413;52.336;21.200;2023-06-10T07:06:34;13.00;;;5.90;;
25509;SDS011;13413;52.336;21.200;2023-06-10T07:09:28;15.80;;;6.10;;
25509;SDS011;13413;52.336;21.200;2023-06-10T07:12:22;9.70;;;5.40;;
25509;SDS011;13413;52.336;21.200;2023-06-10T07:15:16;11.40;;;5.10;;
25509;SDS011;13413;52.336;21.200;2023-06-10T07:18:10;9.10;;;5.60;;
25509;SDS011;13413;52.336;21.200;2023-06-10T07:21:04;13.60;;;6.00;;
25509;SDS011;13413;52.336;21.200;2023-06-10T07:23:58;9.00;;;5.60;;
25509;SDS011;13413;52.336;21.200;2023-06-10T07:26:52;9.60;;;6.00;;
25509;SDS011;13413;52.336;21.200;2023-06-10T07:43:02;8.20;;;5.50;;
25509;SDS011;13413;52.336;21.200;2023-06-10T07:45:55;10.70;;;6.10;;
25509;SDS011;13413;52.336;21.200;2023-06-10T07:48:49;9.50;;;5.60;;
25509;SDS011;13413;52.336;21.200;2023-06-10T07:51:43;10.50;;;6.00;;
25509;SDS011;13413;52.336;21.200;2023-06-10T07:54:37;11.20;;;5.80;;
25509;SDS011;13413;52.336;21.200;2023-06-10T07:57:31;8.40;;;5.80;;
25509;SDS011;13413;52.336;21.200;2023-06-10T08:00:25;8.70;;;5.20;;
25509;SDS011;13413;52.336;21.200;2023-06-10T08:03:19;8.50;;;5.90;;
25509;SDS011;13413;52.336;21.200;2023-06-10T08:06:14;8.00;;;5.50;;
25509;SDS011;13413;52.336;21.200;2023-06-10T08:12:00;8.00;;;5.80;;
25509;SDS011;13413;52.336;21.200;2023-06-10T08:14:54;12.60;;;6.10;;
25509;SDS011;13413;52.336;21.200;2023-06-10T08:17:48;11.90;;;6.20;;
25509;SDS011;13413;52.336;21.200;2023-06-10T08:20:43;8.70;;;5.30;;
25509;SDS011;13413;52.336;21.200;2023-06-10T08:23:36;9.90;;;6.30;;
25509;SDS011;13413;52.336;21.200;2023-06-10T08:26:30;20.60;;;7.00;;
25509;SDS011;13413;52.336;21.200;2023-06-10T08:29:24;13.10;;;5.80;;
25509;SDS011;13413;52.336;21.200;2023-06-10T08:32:18;7.20;;;5.60;;
25509;SDS011;13413;52.336;21.200;2023-06-10T08:35:12;9.60;;;5.80;;
25509;SDS011;13413;52.336;21.200;2023-06-10T08:38:06;19.00;;;6.90;;
25509;SDS011;13413;52.336;21.200;2023-06-10T08:41:00;13.40;;;6.20;;
25509;SDS011;13413;52.336;21.200;2023-06-10T08:43:59;14.90;;;6.10;;
25509;SDS011;13413;52.336;21.200;2023-06-10T08:47:00;10.50;;;6.20;;
25509;SDS011;13413;52.336;21.200;2023-06-10T08:50:00;10.40;;;5.80;;
25509;SDS011;13413;52.336;21.200;2023-06-10T08:52:57;11.10;;;6.30;;
25509;SDS011;13413;52.336;21.200;2023-06-10T08:55:51;10.00;;;6.00;;
25509;SDS011;13413;52.336;21.200;2023-06-10T08:58:50;8.40;;;5.90;;
25509;SDS011;13413;52.336;21.200;2023-06-10T09:01:45;9.70;;;5.30;;
25509;SDS011;13413;52.336;21.200;2023-06-10T09:04:40;8.60;;;5.20;;
25509;SDS011;13413;52.336;21.200;2023-06-10T09:07:35;8.10;;;5.40;;
25509;SDS011;13413;52.336;21.200;2023-06-10T09:10:30;13.50;;;5.70;;
25509;SDS011;13413;52.336;21.200;2023-06-10T09:13:24;10.50;;;5.40;;
25509;SDS011;13413;52.336;21.200;2023-06-10T09:16:18;8.30;;;5.90;;
25509;SDS011;13413;52.336;21.200;2023-06-10T09:19:12;9.50;;;5.40;;
25509;SDS011;13413;52.336;21.200;2023-06-10T09:22:08;11.40;;;5.20;;
25509;SDS011;13413;52.336;21.200;2023-06-10T09:25:03;12.40;;;5.00;;
25509;SDS011;13413;52.336;21.200;2023-06-10T09:27:58;9.70;;;5.40;;
25509;SDS011;13413;52.336;21.200;2023-06-10T09:31:02;9.30;;;5.30;;
25509;SDS011;13413;52.336;21.200;2023-06-10T09:34:05;7.20;;;4.20;;
25509;SDS011;13413;52.336;21.200;2023-06-10T09:37:00;9.70;;;4.90;;
25509;SDS011;13413;52.336;21.200;2023-06-10T09:40:02;7.00;;;4.60;;
25509;SDS011;13413;52.336;21.200;2023-06-10T09:42:58;8.60;;;4.50;;
25509;SDS011;13413;52.336;21.200;2023-06-10T09:45:52;8.10;;;5.00;;
25509;SDS011;13413;52.336;21.200;2023-06-10T09:48:49;8.30;;;5.00;;
25509;SDS011;13413;52.336;21.200;2023-06-10T09:51:50;7.40;;;4.70;;
25509;SDS011;13413;52.336;21.200;2023-06-10T10:03:09;6.30;;;4.50;;
25509;SDS011;13413;52.336;21.200;2023-06-10T10:06:14;6.10;;;4.00;;
25509;SDS011;13413;52.336;21.200;2023-06-10T10:12:00;7.10;;;4.20;;
25509;SDS011;13413;52.336;21.200;2023-06-10T10:14:58;9.30;;;4.30;;
25509;SDS011;13413;52.336;21.200;2023-06-10T10:17:55;5.90;;;4.50;;
25509;SDS011;13413;52.336;21.200;2023-06-10T10:20:59;8.40;;;4.30;;
25509;SDS011;13413;52.336;21.200;2023-06-10T10:24:00;6.80;;;4.40;;
25509;SDS011;13413;52.336;21.200;2023-06-10T10:26:58;5.90;;;3.70;;
25509;SDS011;13413;52.336;21.200;2023-06-10T10:29:55;5.60;;;4.20;;
25509;SDS011;13413;52.336;21.200;2023-06-10T10:32:55;8.00;;;4.60;;
25509;SDS011;13413;52.336;21.200;2023-06-10T10:35:55;6.60;;;4.00;;
25509;SDS011;13413;52.336;21.200;2023-06-10T10:38:49;6.30;;;4.50;;
25509;SDS011;13413;52.336;21.200;2023-06-10T10:41:43;5.20;;;4.30;;
25509;SDS011;13413;52.336;21.200;2023-06-10T10:44:39;8.10;;;4.20;;
25509;SDS011;13413;52.336;21.200;2023-06-10T10:47:34;9.30;;;4.60;;
25509;SDS011;13413;52.336;21.200;2023-06-10T10:50:30;5.60;;;4.10;;
25509;SDS011;13413;52.336;21.200;2023-06-10T10:53:41;6.30;;;4.70;;
25509;SDS011;13413;52.336;21.200;2023-06-10T10:56:35;8.90;;;4.60;;
25509;SDS011;13413;52.336;21.200;2023-06-10T10:59:37;11.40;;;5.00;;
25509;SDS011;13413;52.336;21.200;2023-06-10T11:02:39;9.20;;;4.10;;
25509;SDS011;13413;52.336;21.200;2023-06-10T11:05:39;5.00;;;4.20;;
25509;SDS011;13413;52.336;21.200;2023-06-10T11:08:49;8.50;;;4.70;;
25509;SDS011;13413;52.336;21.200;2023-06-10T11:11:50;4.70;;;4.30;;
25509;SDS011;13413;52.336;21.200;2023-06-10T11:14:44;5.10;;;4.40;;
25509;SDS011;13413;52.336;21.200;2023-06-10T11:21:03;5.90;;;4.50;;
25509;SDS011;13413;52.336;21.200;2023-06-10T11:23:58;10.00;;;4.90;;
25509;SDS011;13413;52.336;21.200;2023-06-10T11:27:21;7.80;;;4.80;;
25509;SDS011;13413;52.336;21.200;2023-06-10T11:30:19;17.20;;;5.50;;
25509;SDS011;13413;52.336;21.200;2023-06-10T11:33:17;7.30;;;4.20;;
25509;SDS011;13413;52.336;21.200;2023-06-10T11:36:12;4.90;;;4.40;;
25509;SDS011;13413;52.336;21.200;2023-06-10T11:39:06;6.50;;;4.90;;
25509;SDS011;13413;52.336;21.200;2023-06-10T11:42:00;10.70;;;5.80;;
25509;SDS011;13413;52.336;21.200;2023-06-10T11:44:54;12.10;;;5.10;;
25509;SDS011;13413;52.336;21.200;2023-06-10T11:47:57;7.50;;;4.80;;
25509;SDS011;13413;52.336;21.200;2023-06-10T11:50:52;7.40;;;5.00;;
25509;SDS011;13413;52.336;21.200;2023-06-10T11:53:46;7.30;;;5.20;;
25509;SDS011;13413;52.336;21.200;2023-06-10T11:56:40;9.20;;;5.90;;
25509;SDS011;13413;52.336;21.200;2023-06-10T11:59:34;10.10;;;5.60;;
25509;SDS011;13413;52.336;21.200;2023-06-10T12:02:28;8.00;;;5.20;;
25509;SDS011;13413;52.336;21.200;2023-06-10T12:05:22;9.00;;;4.70;;
25509;SDS011;13413;52.336;21.200;2023-06-10T12:08:16;6.30;;;5.00;;
25509;SDS011;13413;52.336;21.200;2023-06-10T12:11:10;7.30;;;5.50;;
